sensor_id;sensor_type;location;lat;lon;timestamp;temperature;humidity
61004;DHT22;46889;37.310;13.582;2023-09-19T00:01:06;26.60;73.70
61004;DHT22;46889;37.310;13.582;2023-09-19T00:03:36;26.60;73.10
61004;DHT22;46889;37.310;13.582;2023-09-19T00:06:03;26.60;71.10
61004;DHT22;46889;37.310;13.582;2023-09-19T00:08:33;26.70;69.30
61004;DHT22;46889;37.310;13.582;2023-09-19T00:10:58;26.80;69.20
61004;DHT22;46889;37.310;13.582;2023-09-19T00:13:31;26.70;71.30
61004;DHT22;46889;37.310;13.582;2023-09-19T00:15:57;26.60;72.80
61004;DHT22;46889;37.310;13.582;2023-09-19T00:18:25;26.60;74.50
61004;DHT22;46889;37.310;13.582;2023-09-19T00:20:58;26.50;74.40
61004;DHT22;46889;37.310;13.582;2023-09-19T00:23:24;26.50;74.70
61004;DHT22;46889;37.310;13.582;2023-09-19T00:25:50;26.40;73.70
61004;DHT22;46889;37.310;13.582;2023-09-19T00:28:16;26.40;72.30
61004;DHT22;46889;37.310;13.582;2023-09-19T00:30:44;26.40;73.00
61004;DHT22;46889;37.310;13.582;2023-09-19T00:33:10;26.40;73.00
61004;DHT22;46889;37.310;13.582;2023-09-19T00:35:54;26.40;69.60
61004;DHT22;46889;37.310;13.582;2023-09-19T00:38:20;26.50;68.50
61004;DHT22;46889;37.310;13.582;2023-09-19T00:40:48;26.50;67.00
61004;DHT22;46889;37.310;13.582;2023-09-19T00:43:14;26.50;65.50
61004;DHT22;46889;37.310;13.582;2023-09-19T00:45:45;26.60;65.60
61004;DHT22;46889;37.310;13.582;2023-09-19T00:48:13;26.60;65.80
61004;DHT22;46889;37.310;13.582;2023-09-19T00:50:40;26.70;60.40
61004;DHT22;46889;37.310;13.582;2023-09-19T00:53:08;26.90;60.30
61004;DHT22;46889;37.310;13.582;2023-09-19T00:55:38;26.90;59.30
61004;DHT22;46889;37.310;13.582;2023-09-19T00:58:04;27.00;58.50
61004;DHT22;46889;37.310;13.582;2023-09-19T01:00:32;27.00;57.80
61004;DHT22;46889;37.310;13.582;2023-09-19T01:02:59;27.00;58.40
61004;DHT22;46889;37.310;13.582;2023-09-19T01:05:26;26.90;59.30
61004;DHT22;46889;37.310;13.582;2023-09-19T01:07:52;26.80;59.10
61004;DHT22;46889;37.310;13.582;2023-09-19T01:10:18;26.80;59.90
61004;DHT22;46889;37.310;13.582;2023-09-19T01:13:01;26.80;60.80
61004;DHT22;46889;37.310;13.582;2023-09-19T01:15:43;26.80;60.00
61004;DHT22;46889;37.310;13.582;2023-09-19T01:18:21;26.80;58.30
61004;DHT22;46889;37.310;13.582;2023-09-19T01:31:02;27.00;54.20
61004;DHT22;46889;37.310;13.582;2023-09-19T01:33:29;27.10;54.20
61004;DHT22;46889;37.310;13.582;2023-09-19T01:36:23;27.10;54.30
61004;DHT22;46889;37.310;13.582;2023-09-19T01:38:50;27.10;54.00
61004;DHT22;46889;37.310;13.582;2023-09-19T01:41:17;27.10;54.80
61004;DHT22;46889;37.310;13.582;2023-09-19T01:43:45;27.00;57.20
61004;DHT22;46889;37.310;13.582;2023-09-19T01:46:24;27.00;57.20
61004;DHT22;46889;37.310;13.582;2023-09-19T01:49:15;26.90;58.20
61004;DHT22;46889;37.310;13.582;2023-09-19T01:52:00;26.80;58.10
61004;DHT22;46889;37.310;13.582;2023-09-19T01:54:30;26.90;56.40
61004;DHT22;46889;37.310;13.582;2023-09-19T01:56:59;26.90;56.20
61004;DHT22;46889;37.310;13.582;2023-09-19T01:59:28;26.90;56.20
61004;DHT22;46889;37.310;13.582;2023-09-19T02:01:57;26.90;56.30
61004;DHT22;46889;37.310;13.582;2023-09-19T02:04:23;26.90;57.10
61004;DHT22;46889;37.310;13.582;2023-09-19T02:06:49;26.80;57.70
61004;DHT22;46889;37.310;13.582;2023-09-19T02:09:15;26.80;58.80
61004;DHT22;46889;37.310;13.582;2023-09-19T02:11:41;26.80;58.10
61004;DHT22;46889;37.310;13.582;2023-09-19T02:14:07;26.80;58.20
61004;DHT22;46889;37.310;13.582;2023-09-19T02:16:36;26.70;58.20
61004;DHT22;46889;37.310;13.582;2023-09-19T02:19:02;26.70;58.30
61004;DHT22;46889;37.310;13.582;2023-09-19T02:21:31;26.70;57.50
61004;DHT22;46889;37.310;13.582;2023-09-19T02:23:57;26.70;56.70
61004;DHT22;46889;37.310;13.582;2023-09-19T02:26:23;26.70;55.50
61004;DHT22;46889;37.310;13.582;2023-09-19T02:28:49;26.80;55.50
61004;DHT22;46889;37.310;13.582;2023-09-19T02:31:15;26.80;55.60
61004;DHT22;46889;37.310;13.582;2023-09-19T02:33:42;26.90;55.90
61004;DHT22;46889;37.310;13.582;2023-09-19T02:36:08;26.90;55.10
61004;DHT22;46889;37.310;13.582;2023-09-19T02:38:35;26.90;54.20
61004;DHT22;46889;37.310;13.582;2023-09-19T02:41:00;27.00;54.10
61004;DHT22;46889;37.310;13.582;2023-09-19T02:43:27;26.90;54.00
61004;DHT22;46889;37.310;13.582;2023-09-19T02:45:53;27.00;54.20
61004;DHT22;46889;37.310;13.582;2023-09-19T02:48:22;27.00;55.40
61004;DHT22;46889;37.310;13.582;2023-09-19T02:50:51;27.10;56.20
61004;DHT22;46889;37.310;13.582;2023-09-19T02:53:17;27.10;56.80
61004;DHT22;46889;37.310;13.582;2023-09-19T02:55:44;27.10;57.50
61004;DHT22;46889;37.310;13.582;2023-09-19T02:58:10;27.00;57.70
61004;DHT22;46889;37.310;13.582;2023-09-19T03:00:39;27.00;57.70
61004;DHT22;46889;37.310;13.582;2023-09-19T03:03:07;27.00;58.20
61004;DHT22;46889;37.310;13.582;2023-09-19T03:05:34;27.00;60.20
61004;DHT22;46889;37.310;13.582;2023-09-19T03:08:00;27.00;59.40
61004;DHT22;46889;37.310;13.582;2023-09-19T03:10:29;27.00;56.20
61004;DHT22;46889;37.310;13.582;2023-09-19T03:12:56;27.00;55.90
61004;DHT22;46889;37.310;13.582;2023-09-19T03:15:22;27.00;55.70
61004;DHT22;46889;37.310;13.582;2023-09-19T03:17:48;26.90;55.60
61004;DHT22;46889;37.310;13.582;2023-09-19T03:20:15;26.90;56.90
61004;DHT22;46889;37.310;13.582;2023-09-19T03:22:43;26.80;57.20
61004;DHT22;46889;37.310;13.582;2023-09-19T03:25:09;26.80;56.90
61004;DHT22;46889;37.310;13.582;2023-09-19T03:27:37;26.80;55.70
61004;DHT22;46889;37.310;13.582;2023-09-19T03:30:03;26.90;56.10
61004;DHT22;46889;37.310;13.582;2023-09-19T03:32:34;26.80;56.80
61004;DHT22;46889;37.310;13.582;2023-09-19T03:35:01;26.70;56.70
61004;DHT22;46889;37.310;13.582;2023-09-19T03:37:27;26.80;56.00
61004;DHT22;46889;37.310;13.582;2023-09-19T03:39:53;26.90;55.00
61004;DHT22;46889;37.310;13.582;2023-09-19T03:42:19;27.00;55.50
61004;DHT22;46889;37.310;13.582;2023-09-19T03:44:51;27.00;55.80
61004;DHT22;46889;37.310;13.582;2023-09-19T03:47:17;27.00;57.20
61004;DHT22;46889;37.310;13.582;2023-09-19T03:49:44;27.00;56.70
61004;DHT22;46889;37.310;13.582;2023-09-19T03:52:10;27.00;55.40
61004;DHT22;46889;37.310;13.582;2023-09-19T03:54:36;27.00;55.10
61004;DHT22;46889;37.310;13.582;2023-09-19T03:57:03;27.10;55.10
61004;DHT22;46889;37.310;13.582;2023-09-19T03:59:29;27.00;55.20
61004;DHT22;46889;37.310;13.582;2023-09-19T04:01:55;27.00;55.20
61004;DHT22;46889;37.310;13.582;2023-09-19T04:04:22;27.00;55.30
61004;DHT22;46889;37.310;13.582;2023-09-19T04:06:53;27.00;55.30
61004;DHT22;46889;37.310;13.582;2023-09-19T04:09:19;27.00;55.80
61004;DHT22;46889;37.310;13.582;2023-09-19T04:11:45;27.10;54.50
61004;DHT22;46889;37.310;13.582;2023-09-19T04:14:11;27.10;53.70
61004;DHT22;46889;37.310;13.582;2023-09-19T04:16:36;27.20;53.70
61004;DHT22;46889;37.310;13.582;2023-09-19T04:19:04;27.20;53.40
61004;DHT22;46889;37.310;13.582;2023-09-19T04:21:30;27.20;53.00
61004;DHT22;46889;37.310;13.582;2023-09-19T04:23:57;27.20;53.30
61004;DHT22;46889;37.310;13.582;2023-09-19T04:26:23;27.10;53.10
61004;DHT22;46889;37.310;13.582;2023-09-19T04:28:49;27.10;53.40
61004;DHT22;46889;37.310;13.582;2023-09-19T04:31:15;27.00;53.30
61004;DHT22;46889;37.310;13.582;2023-09-19T04:33:42;27.10;51.90
61004;DHT22;46889;37.310;13.582;2023-09-19T04:36:09;27.10;53.00
61004;DHT22;46889;37.310;13.582;2023-09-19T04:38:35;27.10;54.10
61004;DHT22;46889;37.310;13.582;2023-09-19T04:41:01;27.00;53.70
61004;DHT22;46889;37.310;13.582;2023-09-19T04:43:27;27.00;53.60
61004;DHT22;46889;37.310;13.582;2023-09-19T04:45:54;26.90;53.30
61004;DHT22;46889;37.310;13.582;2023-09-19T04:48:21;26.90;53.60
61004;DHT22;46889;37.310;13.582;2023-09-19T04:50:49;26.90;53.60
61004;DHT22;46889;37.310;13.582;2023-09-19T04:53:15;26.80;53.50
61004;DHT22;46889;37.310;13.582;2023-09-19T04:55:41;26.80;53.80
61004;DHT22;46889;37.310;13.582;2023-09-19T04:58:06;26.80;53.80
61004;DHT22;46889;37.310;13.582;2023-09-19T05:00:32;26.80;54.20
61004;DHT22;46889;37.310;13.582;2023-09-19T05:03:00;26.80;53.60
61004;DHT22;46889;37.310;13.582;2023-09-19T05:05:26;26.90;52.80
61004;DHT22;46889;37.310;13.582;2023-09-19T05:07:52;26.90;52.80
61004;DHT22;46889;37.310;13.582;2023-09-19T05:10:21;26.90;53.80
61004;DHT22;46889;37.310;13.582;2023-09-19T05:12:47;26.90;53.90
61004;DHT22;46889;37.310;13.582;2023-09-19T05:15:13;26.90;54.20
61004;DHT22;46889;37.310;13.582;2023-09-19T05:17:48;26.90;54.50
61004;DHT22;46889;37.310;13.582;2023-09-19T05:20:21;26.90;54.00
61004;DHT22;46889;37.310;13.582;2023-09-19T05:23:12;26.90;54.10
61004;DHT22;46889;37.310;13.582;2023-09-19T05:25:38;26.90;54.20
61004;DHT22;46889;37.310;13.582;2023-09-19T05:28:05;26.90;55.30
61004;DHT22;46889;37.310;13.582;2023-09-19T05:30:31;26.90;55.50
61004;DHT22;46889;37.310;13.582;2023-09-19T05:32:57;27.00;55.90
61004;DHT22;46889;37.310;13.582;2023-09-19T05:35:24;27.00;57.00
61004;DHT22;46889;37.310;13.582;2023-09-19T05:37:50;27.00;57.00
61004;DHT22;46889;37.310;13.582;2023-09-19T05:40:17;27.00;57.40
61004;DHT22;46889;37.310;13.582;2023-09-19T05:42:43;27.00;57.60
61004;DHT22;46889;37.310;13.582;2023-09-19T05:45:09;27.10;58.00
61004;DHT22;46889;37.310;13.582;2023-09-19T05:47:41;27.10;58.80
61004;DHT22;46889;37.310;13.582;2023-09-19T05:50:11;27.10;59.00
61004;DHT22;46889;37.310;13.582;2023-09-19T05:52:38;27.10;59.40
61004;DHT22;46889;37.310;13.582;2023-09-19T05:55:05;27.20;59.30
61004;DHT22;46889;37.310;13.582;2023-09-19T05:57:32;27.20;58.90
61004;DHT22;46889;37.310;13.582;2023-09-19T05:59:58;27.30;59.50
61004;DHT22;46889;37.310;13.582;2023-09-19T06:02:24;27.50;59.70
61004;DHT22;46889;37.310;13.582;2023-09-19T06:04:52;27.60;58.00
61004;DHT22;46889;37.310;13.582;2023-09-19T06:07:23;27.70;58.10
61004;DHT22;46889;37.310;13.582;2023-09-19T06:09:51;27.90;57.40
61004;DHT22;46889;37.310;13.582;2023-09-19T06:12:19;28.10;56.90
61004;DHT22;46889;37.310;13.582;2023-09-19T06:14:45;28.30;56.90
61004;DHT22;46889;37.310;13.582;2023-09-19T06:17:10;28.70;57.10
61004;DHT22;46889;37.310;13.582;2023-09-19T06:19:36;29.30;56.50
61004;DHT22;46889;37.310;13.582;2023-09-19T06:22:02;30.00;55.70
61004;DHT22;46889;37.310;13.582;2023-09-19T06:24:29;30.80;56.50
61004;DHT22;46889;37.310;13.582;2023-09-19T06:26:54;31.30;55.30
61004;DHT22;46889;37.310;13.582;2023-09-19T06:29:20;31.90;54.80
61004;DHT22;46889;37.310;13.582;2023-09-19T06:31:48;32.40;54.90
61004;DHT22;46889;37.310;13.582;2023-09-19T06:34:14;32.60;55.60
61004;DHT22;46889;37.310;13.582;2023-09-19T06:36:43;32.80;55.80
61004;DHT22;46889;37.310;13.582;2023-09-19T06:39:10;33.20;54.40
61004;DHT22;46889;37.310;13.582;2023-09-19T06:41:39;33.60;53.50
61004;DHT22;46889;37.310;13.582;2023-09-19T06:44:07;34.00;53.60
61004;DHT22;46889;37.310;13.582;2023-09-19T06:46:33;34.10;52.40
61004;DHT22;46889;37.310;13.582;2023-09-19T06:49:01;34.10;51.50
61004;DHT22;46889;37.310;13.582;2023-09-19T06:51:32;34.00;52.10
61004;DHT22;46889;37.310;13.582;2023-09-19T06:54:00;34.50;52.90
61004;DHT22;46889;37.310;13.582;2023-09-19T06:56:26;35.00;51.50
61004;DHT22;46889;37.310;13.582;2023-09-19T06:58:52;34.60;50.20
61004;DHT22;46889;37.310;13.582;2023-09-19T07:01:20;35.30;50.10
61004;DHT22;46889;37.310;13.582;2023-09-19T07:03:46;34.80;48.30
61004;DHT22;46889;37.310;13.582;2023-09-19T07:06:12;34.40;47.10
61004;DHT22;46889;37.310;13.582;2023-09-19T07:08:37;34.90;47.40
61004;DHT22;46889;37.310;13.582;2023-09-19T07:11:04;35.20;46.70
61004;DHT22;46889;37.310;13.582;2023-09-19T07:13:31;35.30;47.90
61004;DHT22;46889;37.310;13.582;2023-09-19T07:16:01;35.70;48.80
61004;DHT22;46889;37.310;13.582;2023-09-19T07:18:26;35.70;48.90
61004;DHT22;46889;37.310;13.582;2023-09-19T07:20:56;35.70;49.30
61004;DHT22;46889;37.310;13.582;2023-09-19T07:23:26;35.40;51.40
61004;DHT22;46889;37.310;13.582;2023-09-19T07:25:52;35.50;51.80
61004;DHT22;46889;37.310;13.582;2023-09-19T07:28:22;35.00;50.70
61004;DHT22;46889;37.310;13.582;2023-09-19T07:30:48;35.40;51.10
61004;DHT22;46889;37.310;13.582;2023-09-19T07:33:13;35.30;52.30
61004;DHT22;46889;37.310;13.582;2023-09-19T07:35:40;35.00;53.00
61004;DHT22;46889;37.310;13.582;2023-09-19T07:38:06;35.00;52.10
61004;DHT22;46889;37.310;13.582;2023-09-19T07:40:38;34.80;53.00
61004;DHT22;46889;37.310;13.582;2023-09-19T07:43:06;34.50;52.30
61004;DHT22;46889;37.310;13.582;2023-09-19T07:45:32;34.40;51.70
61004;DHT22;46889;37.310;13.582;2023-09-19T07:47:58;34.50;52.20
61004;DHT22;46889;37.310;13.582;2023-09-19T07:50:25;34.40;52.60
61004;DHT22;46889;37.310;13.582;2023-09-19T07:52:52;34.30;52.30
61004;DHT22;46889;37.310;13.582;2023-09-19T07:55:18;33.90;53.10
61004;DHT22;46889;37.310;13.582;2023-09-19T07:57:45;33.70;53.30
61004;DHT22;46889;37.310;13.582;2023-09-19T08:00:12;33.50;52.80
61004;DHT22;46889;37.310;13.582;2023-09-19T08:02:41;33.50;53.00
61004;DHT22;46889;37.310;13.582;2023-09-19T08:05:10;33.80;54.20
61004;DHT22;46889;37.310;13.582;2023-09-19T08:07:37;33.90;54.00
61004;DHT22;46889;37.310;13.582;2023-09-19T08:10:03;34.00;55.60
61004;DHT22;46889;37.310;13.582;2023-09-19T08:12:29;34.00;52.80
61004;DHT22;46889;37.310;13.582;2023-09-19T08:14:55;34.00;51.80
61004;DHT22;46889;37.310;13.582;2023-09-19T08:17:21;34.30;50.90
61004;DHT22;46889;37.310;13.582;2023-09-19T08:19:48;34.20;49.70
61004;DHT22;46889;37.310;13.582;2023-09-19T08:22:19;34.30;50.40
61004;DHT22;46889;37.310;13.582;2023-09-19T08:24:45;34.40;51.80
61004;DHT22;46889;37.310;13.582;2023-09-19T08:27:11;34.20;51.80
61004;DHT22;46889;37.310;13.582;2023-09-19T08:29:37;34.40;52.10
61004;DHT22;46889;37.310;13.582;2023-09-19T08:32:04;34.00;52.90
61004;DHT22;46889;37.310;13.582;2023-09-19T08:34:30;34.30;52.10
61004;DHT22;46889;37.310;13.582;2023-09-19T08:37:00;33.90;55.10
61004;DHT22;46889;37.310;13.582;2023-09-19T08:39:26;33.80;57.50
61004;DHT22;46889;37.310;13.582;2023-09-19T08:41:58;33.60;59.10
61004;DHT22;46889;37.310;13.582;2023-09-19T08:44:27;33.60;59.20
61004;DHT22;46889;37.310;13.582;2023-09-19T08:46:58;34.00;60.30
61004;DHT22;46889;37.310;13.582;2023-09-19T08:51:59;34.10;62.40
61004;DHT22;46889;37.310;13.582;2023-09-19T08:54:28;34.10;62.90
61004;DHT22;46889;37.310;13.582;2023-09-19T08:56:55;33.70;64.30
61004;DHT22;46889;37.310;13.582;2023-09-19T08:59:22;34.00;65.70
61004;DHT22;46889;37.310;13.582;2023-09-19T09:01:53;34.20;66.00
61004;DHT22;46889;37.310;13.582;2023-09-19T09:04:19;34.10;70.60
61004;DHT22;46889;37.310;13.582;2023-09-19T09:06:45;33.90;71.70
61004;DHT22;46889;37.310;13.582;2023-09-19T09:09:17;34.00;72.70
61004;DHT22;46889;37.310;13.582;2023-09-19T09:11:43;34.00;72.10
61004;DHT22;46889;37.310;13.582;2023-09-19T09:14:08;34.00;73.20
61004;DHT22;46889;37.310;13.582;2023-09-19T09:16:34;34.10;73.80
61004;DHT22;46889;37.310;13.582;2023-09-19T09:19:00;34.20;73.70
61004;DHT22;46889;37.310;13.582;2023-09-19T09:21:27;33.70;75.00
61004;DHT22;46889;37.310;13.582;2023-09-19T09:23:53;33.90;74.80
61004;DHT22;46889;37.310;13.582;2023-09-19T09:29:04;33.70;72.90
61004;DHT22;46889;37.310;13.582;2023-09-19T09:31:29;33.50;72.50
61004;DHT22;46889;37.310;13.582;2023-09-19T09:33:56;33.50;73.40
61004;DHT22;46889;37.310;13.582;2023-09-19T09:36:35;33.60;75.70
61004;DHT22;46889;37.310;13.582;2023-09-19T09:39:02;33.30;78.10
61004;DHT22;46889;37.310;13.582;2023-09-19T09:41:41;33.30;80.60
61004;DHT22;46889;37.310;13.582;2023-09-19T09:44:14;33.10;81.90
61004;DHT22;46889;37.310;13.582;2023-09-19T09:46:43;33.20;82.70
61004;DHT22;46889;37.310;13.582;2023-09-19T09:49:21;33.30;82.30
61004;DHT22;46889;37.310;13.582;2023-09-19T09:54:27;33.30;87.70
61004;DHT22;46889;37.310;13.582;2023-09-19T09:57:02;33.00;87.70
61004;DHT22;46889;37.310;13.582;2023-09-19T10:02:35;32.80;90.40
61004;DHT22;46889;37.310;13.582;2023-09-19T10:07:47;33.00;91.50
61004;DHT22;46889;37.310;13.582;2023-09-19T10:13:28;33.60;93.30
61004;DHT22;46889;37.310;13.582;2023-09-19T10:15:56;33.60;94.40
61004;DHT22;46889;37.310;13.582;2023-09-19T10:18:24;33.50;95.50
61004;DHT22;46889;37.310;13.582;2023-09-19T10:20:51;33.20;95.60
61004;DHT22;46889;37.310;13.582;2023-09-19T10:23:18;33.10;95.70
61004;DHT22;46889;37.310;13.582;2023-09-19T10:25:48;33.10;96.90
61004;DHT22;46889;37.310;13.582;2023-09-19T10:28:16;33.10;97.00
61004;DHT22;46889;37.310;13.582;2023-09-19T10:33:15;33.30;97.50
61004;DHT22;46889;37.310;13.582;2023-09-19T10:35:44;33.10;97.60
61004;DHT22;46889;37.310;13.582;2023-09-19T10:38:30;32.90;99.40
61004;DHT22;46889;37.310;13.582;2023-09-19T10:40:58;32.90;99.80
61004;DHT22;46889;37.310;13.582;2023-09-19T10:43:26;33.20;97.80
61004;DHT22;46889;37.310;13.582;2023-09-19T10:45:57;33.30;96.30
61004;DHT22;46889;37.310;13.582;2023-09-19T10:48:26;33.20;97.30
61004;DHT22;46889;37.310;13.582;2023-09-19T10:53:45;32.70;99.90
61004;DHT22;46889;37.310;13.582;2023-09-19T10:56:16;32.80;99.90
61004;DHT22;46889;37.310;13.582;2023-09-19T10:58:43;32.40;99.90
61004;DHT22;46889;37.310;13.582;2023-09-19T11:01:10;32.50;99.90
61004;DHT22;46889;37.310;13.582;2023-09-19T11:03:41;32.60;99.90
61004;DHT22;46889;37.310;13.582;2023-09-19T11:06:11;32.60;99.90
61004;DHT22;46889;37.310;13.582;2023-09-19T11:08:51;32.70;99.90
61004;DHT22;46889;37.310;13.582;2023-09-19T11:22:18;33.10;99.90
61004;DHT22;46889;37.310;13.582;2023-09-19T11:24:44;32.70;99.90
61004;DHT22;46889;37.310;13.582;2023-09-19T11:27:13;32.60;99.90
61004;DHT22;46889;37.310;13.582;2023-09-19T11:29:40;32.70;99.90
61004;DHT22;46889;37.310;13.582;2023-09-19T11:32:06;32.60;99.90
61004;DHT22;46889;37.310;13.582;2023-09-19T11:39:37;32.30;99.90
61004;DHT22;46889;37.310;13.582;2023-09-19T11:44:49;32.50;99.90
61004;DHT22;46889;37.310;13.582;2023-09-19T11:47:17;32.90;99.90
61004;DHT22;46889;37.310;13.582;2023-09-19T11:49:44;33.00;99.90
61004;DHT22;46889;37.310;13.582;2023-09-19T11:52:10;32.90;99.90
61004;DHT22;46889;37.310;13.582;2023-09-19T11:54:39;32.90;99.90
61004;DHT22;46889;37.310;13.582;2023-09-19T11:57:07;33.00;99.90
61004;DHT22;46889;37.310;13.582;2023-09-19T11:59:33;32.80;99.90
61004;DHT22;46889;37.310;13.582;2023-09-19T12:02:06;32.90;99.90
61004;DHT22;46889;37.310;13.582;2023-09-19T12:04:37;33.10;99.90
61004;DHT22;46889;37.310;13.582;2023-09-19T12:07:06;32.80;99.90
61004;DHT22;46889;37.310;13.582;2023-09-19T12:09:38;33.00;99.90
61004;DHT22;46889;37.310;13.582;2023-09-19T12:12:04;33.00;99.90
61004;DHT22;46889;37.310;13.582;2023-09-19T12:14:30;33.00;99.90
61004;DHT22;46889;37.310;13.582;2023-09-19T12:16:56;32.80;99.90
61004;DHT22;46889;37.310;13.582;2023-09-19T12:19:22;32.70;99.90
61004;DHT22;46889;37.310;13.582;2023-09-19T12:24:23;32.40;99.90
61004;DHT22;46889;37.310;13.582;2023-09-19T12:26:53;32.50;99.90
61004;DHT22;46889;37.310;13.582;2023-09-19T12:29:19;32.60;99.90
61004;DHT22;46889;37.310;13.582;2023-09-19T12:31:56;32.70;99.90
61004;DHT22;46889;37.310;13.582;2023-09-19T12:34:32;32.80;99.90
61004;DHT22;46889;37.310;13.582;2023-09-19T12:37:16;33.00;99.90
61004;DHT22;46889;37.310;13.582;2023-09-19T12:39:49;32.90;99.90
61004;DHT22;46889;37.310;13.582;2023-09-19T12:42:17;33.00;99.90
61004;DHT22;46889;37.310;13.582;2023-09-19T12:44:44;32.70;99.90
61004;DHT22;46889;37.310;13.582;2023-09-19T12:47:11;32.70;99.90
61004;DHT22;46889;37.310;13.582;2023-09-19T12:50:04;32.90;99.90
61004;DHT22;46889;37.310;13.582;2023-09-19T12:52:22;33.10;99.90
61004;DHT22;46889;37.310;13.582;2023-09-19T12:54:51;32.90;99.90
61004;DHT22;46889;37.310;13.582;2023-09-19T12:57:23;33.00;99.90
61004;DHT22;46889;37.310;13.582;2023-09-19T12:59:54;33.00;99.90
61004;DHT22;46889;37.310;13.582;2023-09-19T13:02:20;32.90;99.90
61004;DHT22;46889;37.310;13.582;2023-09-19T13:04:52;32.60;99.90
61004;DHT22;46889;37.310;13.582;2023-09-19T13:10:03;32.30;99.90
61004;DHT22;46889;37.310;13.582;2023-09-19T13:12:34;32.60;99.90
61004;DHT22;46889;37.310;13.582;2023-09-19T13:15:08;32.70;99.90
61004;DHT22;46889;37.310;13.582;2023-09-19T13:17:47;32.60;99.90
61004;DHT22;46889;37.310;13.582;2023-09-19T13:20:25;32.60;99.90
61004;DHT22;46889;37.310;13.582;2023-09-19T13:22:55;32.90;99.90
61004;DHT22;46889;37.310;13.582;2023-09-19T13:25:25;32.90;99.90
61004;DHT22;46889;37.310;13.582;2023-09-19T13:27:54;32.80;99.90
61004;DHT22;46889;37.310;13.582;2023-09-19T13:30:22;32.70;99.90
61004;DHT22;46889;37.310;13.582;2023-09-19T13:32:48;32.40;99.90
61004;DHT22;46889;37.310;13.582;2023-09-19T13:35:14;32.30;99.90
61004;DHT22;46889;37.310;13.582;2023-09-19T13:37:41;32.60;99.90
61004;DHT22;46889;37.310;13.582;2023-09-19T13:40:08;32.50;99.90
61004;DHT22;46889;37.310;13.582;2023-09-19T13:42:34;32.50;99.90
61004;DHT22;46889;37.310;13.582;2023-09-19T13:45:02;32.20;99.90
61004;DHT22;46889;37.310;13.582;2023-09-19T13:47:30;32.00;99.90
61004;DHT22;46889;37.310;13.582;2023-09-19T13:49:56;32.20;99.90
61004;DHT22;46889;37.310;13.582;2023-09-19T13:52:22;32.00;99.90
61004;DHT22;46889;37.310;13.582;2023-09-19T13:54:50;31.90;99.90
61004;DHT22;46889;37.310;13.582;2023-09-19T13:57:16;32.00;99.90
61004;DHT22;46889;37.310;13.582;2023-09-19T13:59:42;31.90;99.90
61004;DHT22;46889;37.310;13.582;2023-09-19T14:02:08;31.90;99.90
61004;DHT22;46889;37.310;13.582;2023-09-19T14:04:34;32.00;99.90
61004;DHT22;46889;37.310;13.582;2023-09-19T14:07:02;31.90;99.90
61004;DHT22;46889;37.310;13.582;2023-09-19T14:09:29;31.90;99.90
61004;DHT22;46889;37.310;13.582;2023-09-19T14:11:55;31.80;99.90
61004;DHT22;46889;37.310;13.582;2023-09-19T14:14:21;31.90;99.90
61004;DHT22;46889;37.310;13.582;2023-09-19T14:16:47;32.20;99.90
61004;DHT22;46889;37.310;13.582;2023-09-19T14:19:13;32.00;99.90
61004;DHT22;46889;37.310;13.582;2023-09-19T14:21:40;31.90;99.90
61004;DHT22;46889;37.310;13.582;2023-09-19T14:24:06;31.90;99.90
61004;DHT22;46889;37.310;13.582;2023-09-19T14:26:35;32.00;99.90
61004;DHT22;46889;37.310;13.582;2023-09-19T14:29:01;32.00;99.90
61004;DHT22;46889;37.310;13.582;2023-09-19T14:31:27;31.80;99.90
61004;DHT22;46889;37.310;13.582;2023-09-19T14:33:54;31.80;99.90
61004;DHT22;46889;37.310;13.582;2023-09-19T14:36:21;31.70;99.90
61004;DHT22;46889;37.310;13.582;2023-09-19T14:38:47;31.60;99.90
61004;DHT22;46889;37.310;13.582;2023-09-19T14:41:13;31.70;99.90
61004;DHT22;46889;37.310;13.582;2023-09-19T14:43:38;31.80;99.90
61004;DHT22;46889;37.310;13.582;2023-09-19T14:46:05;31.80;99.90
61004;DHT22;46889;37.310;13.582;2023-09-19T14:48:33;31.80;99.90
61004;DHT22;46889;37.310;13.582;2023-09-19T14:51:07;31.60;99.90
61004;DHT22;46889;37.310;13.582;2023-09-19T14:53:37;31.80;99.90
61004;DHT22;46889;37.310;13.582;2023-09-19T14:56:04;31.70;99.90
61004;DHT22;46889;37.310;13.582;2023-09-19T14:58:30;31.70;99.90
61004;DHT22;46889;37.310;13.582;2023-09-19T15:01:03;31.80;99.90
61004;DHT22;46889;37.310;13.582;2023-09-19T15:03:29;31.60;99.90
61004;DHT22;46889;37.310;13.582;2023-09-19T15:06:02;31.50;99.90
61004;DHT22;46889;37.310;13.582;2023-09-19T15:08:28;31.40;99.90
61004;DHT22;46889;37.310;13.582;2023-09-19T15:10:53;31.20;99.90
61004;DHT22;46889;37.310;13.582;2023-09-19T15:13:21;31.30;99.90
61004;DHT22;46889;37.310;13.582;2023-09-19T15:15:46;30.90;99.90
61004;DHT22;46889;37.310;13.582;2023-09-19T15:18:13;30.50;99.90
61004;DHT22;46889;37.310;13.582;2023-09-19T15:20:45;30.30;99.90
61004;DHT22;46889;37.310;13.582;2023-09-19T15:23:12;30.20;99.90
61004;DHT22;46889;37.310;13.582;2023-09-19T15:25:38;30.40;99.90
61004;DHT22;46889;37.310;13.582;2023-09-19T15:28:06;30.40;99.90
61004;DHT22;46889;37.310;13.582;2023-09-19T15:30:39;30.20;99.90
61004;DHT22;46889;37.310;13.582;2023-09-19T15:33:05;30.00;99.90
61004;DHT22;46889;37.310;13.582;2023-09-19T15:35:31;29.60;99.90
61004;DHT22;46889;37.310;13.582;2023-09-19T15:37:57;29.80;99.90
61004;DHT22;46889;37.310;13.582;2023-09-19T15:40:24;30.00;99.90
61004;DHT22;46889;37.310;13.582;2023-09-19T15:42:50;29.80;99.90
61004;DHT22;46889;37.310;13.582;2023-09-19T15:45:16;29.90;99.90
61004;DHT22;46889;37.310;13.582;2023-09-19T15:47:44;29.70;99.90
61004;DHT22;46889;37.310;13.582;2023-09-19T15:50:10;29.60;99.90
61004;DHT22;46889;37.310;13.582;2023-09-19T15:52:39;29.50;99.90
61004;DHT22;46889;37.310;13.582;2023-09-19T15:55:05;29.60;99.90
61004;DHT22;46889;37.310;13.582;2023-09-19T15:57:32;29.60;99.90
61004;DHT22;46889;37.310;13.582;2023-09-19T15:59:59;29.70;99.90
61004;DHT22;46889;37.310;13.582;2023-09-19T16:02:26;29.60;99.90
61004;DHT22;46889;37.310;13.582;2023-09-19T16:04:54;29.50;99.90
61004;DHT22;46889;37.310;13.582;2023-09-19T16:07:19;29.60;99.90
61004;DHT22;46889;37.310;13.582;2023-09-19T16:09:45;29.40;99.90
61004;DHT22;46889;37.310;13.582;2023-09-19T16:12:11;29.30;99.90
61004;DHT22;46889;37.310;13.582;2023-09-19T16:14:39;29.20;99.90
61004;DHT22;46889;37.310;13.582;2023-09-19T16:17:05;29.30;99.90